WetterOnline ( https://www.wetteronline.de )

Wetter aktuell Iserlohn

Aktuelles Wetter: Lüdenscheid (392m)

6-stündlich | Neueste Meldungen
Ortszeit Temperatur Wetter
Mi, 22.05. 14:00 13.4° C Regen
Mi, 22.05. 8:00 12.8° C bedeckt
Mi, 22.05. 2:00 12.9° C Sprühregen
Di, 21.05. 20:00 13.4° C leichter Regen
Di, 21.05. 14:00 21.1° C wolkig
Di, 21.05. 8:00 15.3° C leicht bewölkt
Di, 21.05. 2:00 12.3° C wolkenlos
Mo, 20.05. 20:00 17.1° C wolkig
Ortszeit Temperatur Wetter
Mi, 22.05. 19:00 16.5° C wolkig
Mi, 22.05. 18:50 16.5° C wolkig
Mi, 22.05. 18:40 16.2° C bedeckt
Mi, 22.05. 18:30 16.3° C wolkig
Mi, 22.05. 18:20 16.3° C wolkig
Mi, 22.05. 18:10 15.5° C bewölkt
Mi, 22.05. 18:00 15.7° C wolkig
Mi, 22.05. 17:30 16.3° C wolkig
Mi, 22.05. 17:00 15.7° C bewölkt
Mi, 22.05. 16:30 15.7° C bewölkt
Mi, 22.05. 16:00 15.7° C bewölkt
Ortszeit Relative Feuchte Sichtweite
Mi, 22.05. 14:00 92% 27 km
Mi, 22.05. 8:00 95% 9 km
Mi, 22.05. 2:00 96% 9 km
Di, 21.05. 20:00 97% 17 km
Di, 21.05. 14:00 60% 55 km
Di, 21.05. 8:00 80% 45 km
Di, 21.05. 2:00 95% 23 km
Mo, 20.05. 20:00 72% 55 km
Ortszeit Relative Feuchte Sichtweite
Mi, 22.05. 19:00 66% 60 km
Mi, 22.05. 18:50 66% -
Mi, 22.05. 18:40 65% -
Mi, 22.05. 18:30 66% >70 km
Mi, 22.05. 18:20 66% -
Mi, 22.05. 18:10 67% -
Mi, 22.05. 18:00 66% >70 km
Mi, 22.05. 17:30 69% 55 km
Mi, 22.05. 17:00 73% 65 km
Mi, 22.05. 16:30 72% 65 km
Mi, 22.05. 16:00 76% 45 km
Ortszeit Niederschlagsmenge Niederschlagsart
Mi, 22.05. 14:00 0.1 l/m2 in 6 Std. Regen
Mi, 22.05. 8:00 22 l/m2 in 12 Std. Regen
Mi, 22.05. 2:00 22 l/m2 in 6 Std. Regen
Di, 21.05. 20:00 12 l/m2 in 12 Std. Regen
Di, 21.05. 14:00 0.0 l/m2 in 6 Std. -
Di, 21.05. 8:00 0.0 l/m2 in 12 Std. -
Di, 21.05. 2:00 0.0 l/m2 in 6 Std. -
Mo, 20.05. 20:00 0.1 l/m2 in 12 Std. Regen
Ortszeit Niederschlagsmenge Niederschlagsart
Mi, 22.05. 19:00 0.0 l/m2 in 1 Std. -
Mi, 22.05. 18:50 keine Meldung -
Mi, 22.05. 18:40 keine Meldung -
Mi, 22.05. 18:30 0.0 l/m2 in 30 Min -
Mi, 22.05. 18:20 keine Meldung -
Mi, 22.05. 18:10 keine Meldung -
Mi, 22.05. 18:00 0.0 l/m2 in 1 Std. -
Mi, 22.05. 17:30 0.0 l/m2 in 30 Min -
Mi, 22.05. 17:00 0.0 l/m2 in 1 Std. Regen
Mi, 22.05. 16:30 0.0 l/m2 in 30 Min -
Mi, 22.05. 16:00 <0.05 l/m2 in 1 Std. Regen
Ortszeit Stärke Spitze Richtung
km/h Bft. km/h Grad Sektor
Mi, 22.05. 14:00 9 2 39 210° SW
Mi, 22.05. 8:00 14 3 32 240° SW
Mi, 22.05. 2:00 14 3 29 230° SW
Di, 21.05. 20:00 11 2 36 270° W
Di, 21.05. 14:00 13 3 30 90° O
Di, 21.05. 8:00 6 1 9 70° O
Di, 21.05. 2:00 4 1 14 60° NO
Mo, 20.05. 20:00 9 2 19 70° O
Ortszeit Stärke Spitze Richtung
km/h Bft. km/h Grad Sektor
Mi, 22.05. 19:00 20 4 33 250° W
Mi, 22.05. 18:50 20 4 - 250° W
Mi, 22.05. 18:40 22 4 - 250° W
Mi, 22.05. 18:30 17 3 31 260° W
Mi, 22.05. 18:20 17 3 - 260° W
Mi, 22.05. 18:10 20 4 - 250° W
Mi, 22.05. 18:00 19 3 39 260° W
Mi, 22.05. 17:30 22 4 40 250° W
Mi, 22.05. 17:00 20 4 39 250° W
Mi, 22.05. 16:30 24 4 37 260° W
Mi, 22.05. 16:00 18 3 32 250° W
Ortszeit Untergrenze Bedeckung Gattung
total tief tief mittel hoch
Mi, 22.05. 14:00 270 m 7/8 7/8 - - -
Mi, 22.05. 8:00 240 m 8/8 8/8 - - -
Mi, 22.05. 2:00 60 m 8/8 8/8 - - -
Di, 21.05. 20:00 90 m 8/8 8/8 - - -
Di, 21.05. 14:00 1500 m 8/8 3/8 - - -
Di, 21.05. 8:00 6900 m 5/8 2/8 - - -
Di, 21.05. 2:00 - 0/8 0/8 - - -
Mo, 20.05. 20:00 930 m 5/8 5/8 - - -
Ortszeit Bedeckungsgrad in Achtel und Wolkenuntergrenze
Mi, 22.05. 19:00 1(930m) 7(5700m) 8(6600m)
Mi, 22.05. 18:50 1(930m) 7(5700m) 8(6600m)
Mi, 22.05. 18:40 8
Mi, 22.05. 18:30 2(1080m) 7(6600m) 8(9000m)
Mi, 22.05. 18:20 2(1080m) 7(6600m) 8(9000m)
Mi, 22.05. 18:10 7
Mi, 22.05. 18:00 4(1320m) 7(5700m) 7(6600m)
Mi, 22.05. 17:30 2(750m) 7(6600m) 7(8100m)
Mi, 22.05. 17:00 2(660m) 7(1290m) 7(6000m)
Mi, 22.05. 16:30 2(750m) 7(1350m) 7(6000m)
Mi, 22.05. 16:00 2(900m) 7(1140m) 8(5700m)
Ortszeit Luftdruck NN (hPa) Tendenz (hPa in 3 Std.)
Mi, 22.05. 14:00 1010 + 1,5
Mi, 22.05. 8:00 1007 + 1,3
Mi, 22.05. 2:00 1005 + 0,4
Di, 21.05. 20:00 1006 + 0,1
Di, 21.05. 14:00 1005 - 1,1
Di, 21.05. 8:00 1008 - 0,7
Di, 21.05. 2:00 1011 - 0,3
Mo, 20.05. 20:00 1010 - 0,1
Ortszeit Luftdruck NN (hPa) Tendenz (hPa in 3 Std.)
Mi, 22.05. 19:00 1011 + 0,3
Mi, 22.05. 18:50 1011 keine Meldung
Mi, 22.05. 18:40 1011 keine Meldung
Mi, 22.05. 18:30 1011 + 0,4
Mi, 22.05. 18:20 1011 keine Meldung
Mi, 22.05. 18:10 1011 keine Meldung
Mi, 22.05. 18:00 1011 + 0,5
Mi, 22.05. 17:30 1011 + 0,9
Mi, 22.05. 17:00 1011 + 0,7
Mi, 22.05. 16:30 1011 + 0,7
Mi, 22.05. 16:00 1010 + 0,9
Ortszeit Schneehöhe (cm)
Mi, 22.05. 14:00 0
Mi, 22.05. 8:00 0
Mi, 22.05. 2:00 0
Di, 21.05. 20:00 0
Di, 21.05. 14:00 0
Di, 21.05. 8:00 0
Di, 21.05. 2:00 0
Mo, 20.05. 20:00 0
Ortszeit Schneehöhe (cm)
Mi, 22.05. 19:00 0
Mi, 22.05. 18:50 0
Mi, 22.05. 18:40 -
Mi, 22.05. 18:30 0
Mi, 22.05. 18:20 0
Mi, 22.05. 18:10 -
Mi, 22.05. 18:00 0
Mi, 22.05. 17:30 0
Mi, 22.05. 17:00 0
Mi, 22.05. 16:30 0
Mi, 22.05. 16:00 0
Link zu dieser Seite / Seite empfehlen

Das Wetter in ...